createdAt,value
2019-04-07T00:01:42.632Z,20.63
2019-04-07T00:04:12.217Z,26.33
2019-04-07T00:06:41.741Z,25.77
2019-04-07T00:09:11.958Z,21.93
2019-04-07T00:11:41.516Z,24.75
2019-04-07T00:14:11.143Z,24.83
2019-04-07T00:16:41.081Z,23.37
2019-04-07T00:19:11.145Z,20.93
2019-04-07T00:21:40.907Z,28.20
2019-04-07T00:24:10.415Z,22.97
2019-04-07T00:26:40.565Z,23.83
2019-04-07T00:29:10.219Z,22.03
2019-04-07T00:31:39.871Z,26.83
2019-04-07T00:34:09.684Z,20.97
2019-04-07T00:36:39.657Z,22.17
2019-04-07T00:39:09.575Z,22.23
2019-04-07T00:41:39.600Z,19.53
2019-04-07T00:44:09.812Z,21.90
2019-04-07T00:46:39.790Z,21.10
2019-04-07T00:49:09.531Z,20.87
2019-04-07T00:51:39.045Z,19.35
2019-04-07T00:54:09.296Z,22.37
2019-04-07T00:56:39.141Z,24.72
2019-04-07T00:59:08.815Z,21.12
2019-04-07T01:01:38.465Z,19.40
2019-04-07T01:04:09.080Z,21.03
2019-04-07T01:06:38.642Z,20.40
2019-04-07T01:09:10.457Z,18.70
2019-04-07T01:11:40.127Z,23.97
2019-04-07T01:14:10.303Z,27.70
2019-04-07T01:16:40.775Z,19.52
2019-04-07T01:19:13.369Z,25.40
2019-04-07T01:21:43.582Z,24.10
2019-04-07T01:24:13.295Z,24.83
2019-04-07T01:26:43.517Z,18.50
2019-04-07T01:29:13.494Z,23.57
2019-04-07T01:31:43.147Z,19.30
2019-04-07T01:34:13.462Z,20.17
2019-04-07T01:36:43.193Z,22.80
2019-04-07T01:39:12.970Z,20.23
2019-04-07T01:42:13.871Z,20.70
2019-04-07T01:45:02.703Z,25.45
2019-04-07T01:47:40.136Z,22.63
2019-04-07T01:50:41.760Z,20.97
2019-04-07T01:53:24.545Z,19.43
2019-04-07T01:56:08.743Z,21.07
2019-04-07T01:58:56.256Z,24.40
2019-04-07T02:01:38.504Z,23.37
2019-04-07T02:04:22.197Z,17.43
2019-04-07T02:07:09.500Z,24.90
2019-04-07T02:09:47.901Z,23.03
2019-04-07T02:12:46.646Z,22.13
2019-04-07T02:15:23.087Z,20.40
2019-04-07T02:18:07.118Z,24.77
2019-04-07T02:20:59.872Z,25.03
2019-04-07T02:23:47.239Z,18.40
2019-04-07T02:26:34.533Z,16.57
2019-04-07T02:29:15.765Z,20.50
2019-04-07T02:32:02.029Z,15.70
2019-04-07T02:34:45.573Z,23.70
2019-04-07T02:37:24.564Z,18.47
2019-04-07T02:40:31.793Z,22.17
2019-04-07T02:43:32.889Z,22.03
2019-04-07T02:46:27.160Z,20.70
2019-04-07T02:49:22.254Z,22.30
2019-04-07T02:52:09.222Z,17.87
2019-04-07T02:55:07.143Z,22.27
2019-04-07T02:57:47.389Z,23.22
2019-04-07T03:00:29.741Z,23.07
2019-04-07T03:03:14.425Z,19.57
2019-04-07T03:06:02.104Z,20.13
2019-04-07T03:08:50.832Z,19.87
2019-04-07T03:11:32.768Z,26.73
2019-04-07T03:14:13.011Z,20.90
2019-04-07T03:17:00.197Z,20.20
2019-04-07T03:19:48.611Z,24.27
2019-04-07T03:22:41.871Z,21.20
2019-04-07T03:25:23.998Z,20.93
2019-04-07T03:28:19.627Z,23.77
2019-04-07T03:31:17.745Z,20.03
2019-04-07T03:34:09.144Z,24.53
2019-04-07T03:37:16.146Z,32.63
2019-04-07T03:39:30.043Z,25.70
2019-04-07T03:42:09.222Z,18.70
2019-04-07T03:44:44.952Z,26.77
2019-04-07T03:47:27.534Z,20.90
2019-04-07T03:50:17.333Z,21.43
2019-04-07T03:52:52.674Z,19.67
2019-04-07T03:55:41.026Z,26.27
2019-04-07T03:58:28.172Z,22.90
2019-04-07T04:01:13.668Z,22.30
2019-04-07T04:03:50.115Z,22.20
2019-04-07T04:06:38.988Z,24.35
2019-04-07T04:09:20.800Z,26.97
2019-04-07T04:12:12.618Z,20.43
2019-04-07T04:14:47.961Z,17.40
2019-04-07T04:17:18.319Z,19.87
2019-04-07T04:19:48.173Z,23.27
2019-04-07T04:22:23.829Z,20.80
2019-04-07T04:24:53.572Z,20.50
2019-04-07T04:27:23.809Z,23.97
2019-04-07T04:29:55.012Z,21.20
2019-04-07T04:32:25.504Z,21.00
2019-04-07T04:34:56.198Z,28.63
2019-04-07T04:37:36.148Z,20.90
2019-04-07T04:39:57.465Z,20.97
2019-04-07T04:42:27.202Z,22.85
2019-04-07T04:44:57.034Z,20.60
2019-04-07T04:47:27.520Z,30.92
2019-04-07T04:49:57.824Z,25.97
2019-04-07T04:52:27.814Z,23.75
2019-04-07T04:54:57.514Z,24.02
2019-04-07T04:57:28.350Z,22.00
2019-04-07T04:59:59.183Z,22.33
2019-04-07T05:02:29.061Z,29.15
2019-04-07T05:04:59.357Z,27.83
2019-04-07T05:07:30.070Z,17.63
2019-04-07T05:10:01.764Z,24.63
2019-04-07T05:12:32.284Z,26.80
2019-04-07T05:15:04.093Z,18.98
2019-04-07T05:17:34.211Z,27.98
2019-04-07T05:20:04.080Z,29.82
2019-04-07T05:22:36.824Z,20.77
2019-04-07T05:25:07.019Z,29.37
2019-04-07T05:27:36.889Z,26.10
2019-04-07T05:30:08.101Z,26.00
2019-04-07T05:32:38.077Z,19.90
2019-04-07T05:35:08.863Z,27.15
2019-04-07T05:37:39.356Z,24.90
2019-04-07T05:40:09.248Z,26.87
2019-04-07T05:42:39.014Z,29.00
2019-04-07T05:45:10.032Z,23.83
2019-04-07T05:47:43.197Z,25.02
2019-04-07T05:50:11.331Z,30.40
2019-04-07T05:52:40.981Z,25.32
2019-04-07T05:55:10.979Z,29.93
2019-04-07T05:57:40.691Z,27.10
2019-04-07T06:00:14.591Z,25.90
2019-04-07T06:02:42.933Z,29.10
2019-04-07T06:05:13.074Z,25.90
2019-04-07T06:07:42.757Z,28.23
2019-04-07T06:10:15.483Z,25.23
2019-04-07T06:12:47.921Z,26.33
2019-04-07T06:15:21.564Z,28.53
2019-04-07T06:17:48.077Z,21.83
2019-04-07T06:20:18.102Z,30.50
2019-04-07T06:22:52.778Z,29.00
2019-04-07T06:25:20.868Z,34.53
2019-04-07T06:27:51.946Z,35.37
2019-04-07T06:30:23.231Z,28.17
2019-04-07T06:32:52.960Z,35.90
2019-04-07T06:35:23.456Z,31.70
2019-04-07T06:37:53.258Z,28.37
2019-04-07T06:40:23.120Z,29.30
2019-04-07T06:42:53.343Z,28.23
2019-04-07T06:45:30.558Z,30.47
2019-04-07T06:48:07.459Z,26.90
2019-04-07T06:50:50.908Z,25.33
2019-04-07T06:53:43.107Z,35.47
2019-04-07T06:56:33.424Z,33.53
2019-04-07T06:59:17.777Z,24.73
2019-04-07T07:02:07.319Z,25.30
2019-04-07T07:04:50.683Z,25.37
2019-04-07T07:07:43.540Z,24.53
2019-04-07T07:10:50.853Z,28.07
2019-04-07T07:13:36.688Z,27.97
2019-04-07T07:16:27.199Z,29.18
2019-04-07T07:19:24.477Z,31.00
2019-04-07T07:22:16.053Z,30.52
2019-04-07T07:24:47.133Z,29.30
2019-04-07T07:27:17.490Z,28.43
2019-04-07T07:29:48.942Z,26.50
2019-04-07T07:32:18.981Z,27.57
2019-04-07T07:34:49.783Z,25.83
2019-04-07T07:37:19.469Z,35.33
2019-04-07T07:39:49.277Z,25.80
2019-04-07T07:42:21.490Z,28.90
2019-04-07T07:44:51.373Z,21.57
2019-04-07T07:47:22.590Z,29.47
2019-04-07T07:49:52.489Z,25.37
2019-04-07T07:52:22.175Z,31.17
2019-04-07T07:54:51.963Z,40.50
2019-04-07T07:57:24.058Z,23.15
2019-04-07T07:59:55.263Z,32.27
2019-04-07T08:02:29.613Z,30.53
2019-04-07T08:04:59.252Z,26.87
2019-04-07T08:07:29.120Z,28.85
2019-04-07T08:09:59.620Z,30.45
2019-04-07T08:12:32.413Z,29.73
2019-04-07T08:15:00.782Z,28.07
2019-04-07T08:17:33.974Z,31.63
2019-04-07T08:20:04.499Z,28.87
2019-04-07T08:22:40.607Z,29.60
2019-04-07T08:25:06.238Z,30.13
2019-04-07T08:27:35.977Z,25.93
2019-04-07T08:30:09.917Z,28.50
2019-04-07T08:32:38.788Z,24.03
2019-04-07T08:35:08.663Z,26.50
2019-04-07T08:37:38.411Z,24.23
2019-04-07T08:40:09.128Z,28.67
2019-04-07T08:42:39.242Z,24.97
2019-04-07T08:45:09.450Z,30.00
2019-04-07T08:47:40.181Z,24.37
2019-04-07T08:50:13.282Z,26.25
2019-04-07T08:52:43.954Z,26.62
2019-04-07T08:55:13.947Z,31.97
2019-04-07T08:57:45.731Z,23.70
2019-04-07T09:00:20.333Z,23.95
2019-04-07T09:03:01.035Z,23.70
2019-04-07T09:05:26.697Z,26.93
2019-04-07T09:07:52.895Z,30.47
2019-04-07T09:10:33.245Z,26.23
2019-04-07T09:13:04.850Z,28.47
2019-04-07T09:15:43.863Z,27.50
2019-04-07T09:18:19.362Z,27.00
2019-04-07T09:20:54.276Z,28.93
2019-04-07T09:23:43.137Z,26.25
2019-04-07T09:26:42.818Z,26.97
2019-04-07T09:29:24.997Z,27.57
2019-04-07T09:32:12.969Z,25.40
2019-04-07T09:35:07.157Z,31.68
2019-04-07T09:37:56.587Z,29.27
2019-04-07T09:40:38.309Z,27.43
2019-04-07T09:43:30.278Z,26.77
2019-04-07T09:46:14.666Z,25.17
2019-04-07T09:48:57.645Z,29.20
2019-04-07T09:51:41.545Z,22.60
2019-04-07T09:54:51.716Z,23.70
2019-04-07T09:57:46.210Z,26.10
2019-04-07T10:00:25.117Z,22.87
2019-04-07T10:03:04.942Z,22.37
2019-04-07T10:05:54.919Z,24.27
2019-04-07T10:08:53.272Z,24.75
2019-04-07T10:11:32.140Z,29.32
2019-04-07T10:14:20.622Z,21.50
2019-04-07T10:17:27.771Z,22.23
2019-04-07T10:20:28.655Z,22.22
2019-04-07T10:23:10.803Z,21.60
2019-04-07T10:26:09.214Z,19.83
2019-04-07T10:28:51.697Z,21.43
2019-04-07T10:31:44.352Z,21.25
2019-04-07T10:34:33.133Z,22.10
2019-04-07T10:37:28.640Z,21.70
2019-04-07T10:40:23.426Z,21.70
2019-04-07T10:43:05.857Z,18.27
2019-04-07T10:45:48.323Z,19.93
2019-04-07T10:48:43.493Z,18.82
2019-04-07T10:51:28.522Z,16.27
2019-04-07T10:54:10.677Z,24.00
2019-04-07T10:56:50.272Z,17.90
2019-04-07T10:59:39.056Z,18.83
2019-04-07T11:02:33.020Z,17.80
2019-04-07T11:05:20.616Z,19.90
2019-04-07T11:08:12.222Z,22.07
2019-04-07T11:11:13.290Z,17.57
2019-04-07T11:13:56.108Z,16.75
2019-04-07T11:16:50.598Z,20.30
2019-04-07T11:19:30.152Z,19.93
2019-04-07T11:22:25.402Z,16.10
2019-04-07T11:25:09.680Z,20.12
2019-04-07T11:27:50.437Z,16.17
2019-04-07T11:30:27.587Z,23.70
2019-04-07T11:33:20.270Z,17.17
2019-04-07T11:35:57.835Z,23.10
2019-04-07T11:38:44.139Z,18.90
2019-04-07T11:41:24.194Z,12.35
2019-04-07T11:44:15.095Z,15.93
2019-04-07T11:46:54.492Z,14.23
2019-04-07T11:49:33.373Z,21.80
2019-04-07T11:52:20.938Z,16.33
2019-04-07T11:55:07.451Z,17.17
2019-04-07T11:58:06.626Z,18.50
2019-04-07T12:00:48.799Z,15.30
2019-04-07T12:03:32.594Z,20.70
2019-04-07T12:06:13.902Z,22.82
2019-04-07T12:09:14.150Z,16.30
2019-04-07T12:11:53.800Z,18.50
2019-04-07T12:14:52.185Z,17.33
2019-04-07T12:17:26.135Z,20.23
2019-04-07T12:20:05.402Z,17.63
2019-04-07T12:22:45.470Z,16.77
2019-04-07T12:25:25.746Z,17.73
2019-04-07T12:28:21.328Z,17.93
2019-04-07T12:31:02.415Z,18.97
2019-04-07T12:33:38.689Z,16.47
2019-04-07T12:36:28.888Z,17.47
2019-04-07T12:39:17.341Z,13.90
2019-04-07T12:42:08.828Z,16.77
2019-04-07T12:45:10.059Z,18.83
2019-04-07T12:47:55.003Z,15.23
2019-04-07T12:50:42.632Z,16.73
2019-04-07T12:53:34.414Z,14.87
2019-04-07T12:56:16.882Z,21.50
2019-04-07T12:59:03.382Z,15.73
2019-04-07T13:01:41.291Z,17.40
2019-04-07T13:04:23.287Z,21.50
2019-04-07T13:07:20.398Z,15.87
2019-04-07T13:10:05.306Z,16.23
2019-04-07T13:12:57.761Z,14.47
2019-04-07T13:15:47.532Z,18.70
2019-04-07T13:18:37.806Z,17.57
2019-04-07T13:21:10.392Z,17.85
2019-04-07T13:23:57.095Z,20.15
2019-04-07T13:26:34.573Z,13.10
2019-04-07T13:29:09.626Z,15.17
2019-04-07T13:31:58.049Z,15.40
2019-04-07T13:34:52.710Z,14.93
2019-04-07T13:37:41.620Z,21.82
2019-04-07T13:40:28.243Z,14.75
2019-04-07T13:43:04.378Z,16.23
2019-04-07T13:45:53.481Z,17.20
2019-04-07T13:48:51.122Z,13.50
2019-04-07T13:51:34.448Z,13.23
2019-04-07T13:54:40.422Z,14.93
2019-04-07T13:57:35.027Z,19.00
2019-04-07T14:00:33.911Z,11.70
2019-04-07T14:03:10.200Z,17.07
2019-04-07T14:06:17.472Z,13.08
2019-04-07T14:09:04.505Z,20.23
2019-04-07T14:12:01.541Z,17.37
2019-04-07T14:14:42.694Z,16.23
2019-04-07T14:17:36.309Z,17.62
2019-04-07T14:20:16.521Z,15.07
2019-04-07T14:22:53.533Z,17.93
2019-04-07T14:25:29.870Z,15.13
2019-04-07T14:28:24.519Z,14.37
2019-04-07T14:31:19.150Z,11.30
2019-04-07T14:34:23.004Z,13.10
2019-04-07T14:37:01.145Z,11.57
2019-04-07T14:39:39.346Z,11.70
2019-04-07T14:42:18.712Z,13.43
2019-04-07T14:44:53.361Z,9.70
2019-04-07T14:47:46.300Z,12.43
2019-04-07T14:50:38.514Z,12.93
2019-04-07T14:53:15.380Z,15.07
2019-04-07T14:56:11.095Z,12.60
2019-04-07T14:58:53.383Z,12.05
2019-04-07T15:01:35.013Z,12.07
2019-04-07T15:04:05.166Z,13.78
2019-04-07T15:06:34.987Z,10.90
2019-04-07T15:09:31.661Z,11.68
2019-04-07T15:12:26.061Z,9.30
2019-04-07T15:14:54.680Z,11.03
2019-04-07T15:17:24.296Z,10.43
2019-04-07T15:19:53.862Z,12.20
2019-04-07T15:22:28.728Z,14.13
2019-04-07T15:24:54.889Z,9.35
2019-04-07T15:27:25.187Z,11.20
2019-04-07T15:29:55.605Z,12.77
2019-04-07T15:32:28.499Z,9.60
2019-04-07T15:34:56.448Z,9.90
2019-04-07T15:37:26.088Z,11.33
2019-04-07T15:40:00.457Z,12.45
2019-04-07T15:42:35.836Z,10.60
2019-04-07T15:44:59.360Z,8.93
2019-04-07T15:47:29.074Z,10.03
2019-04-07T15:49:59.613Z,8.03
2019-04-07T15:52:31.646Z,9.80
2019-04-07T15:55:02.011Z,12.70
2019-04-07T15:57:33.051Z,10.28
2019-04-07T16:00:04.052Z,9.53
2019-04-07T16:02:35.648Z,9.57
2019-04-07T16:05:06.215Z,13.70
2019-04-07T16:07:36.340Z,11.22
2019-04-07T16:10:08.050Z,11.23
2019-04-07T16:12:44.868Z,10.43
2019-04-07T16:15:10.844Z,10.40
2019-04-07T16:17:42.050Z,12.05
2019-04-07T16:20:20.708Z,11.60
2019-04-07T16:22:46.411Z,13.63
2019-04-07T16:25:15.496Z,11.87
2019-04-07T16:27:45.744Z,9.40
2019-04-07T16:30:16.485Z,11.00
2019-04-07T16:32:46.944Z,10.72
2019-04-07T16:35:16.729Z,17.93
2019-04-07T16:37:46.496Z,12.35
2019-04-07T16:40:16.268Z,13.90
2019-04-07T16:43:01.198Z,13.62
2019-04-07T16:45:18.032Z,10.50
2019-04-07T16:47:47.881Z,11.10
2019-04-07T16:50:18.881Z,11.65
2019-04-07T16:52:49.647Z,17.20
2019-04-07T16:55:37.223Z,11.88
2019-04-07T16:58:08.162Z,12.87
2019-04-07T17:00:39.740Z,12.43
2019-04-07T17:03:09.937Z,9.13
2019-04-07T17:05:40.870Z,12.98
2019-04-07T17:08:10.436Z,11.33
2019-04-07T17:10:39.981Z,11.83
2019-04-07T17:13:18.684Z,17.03
2019-04-07T17:15:41.958Z,15.77
2019-04-07T17:18:37.526Z,10.60
2019-04-07T17:21:13.977Z,11.70
2019-04-07T17:23:43.734Z,13.18
2019-04-07T17:26:13.701Z,14.70
2019-04-07T17:28:46.020Z,12.97
2019-04-07T17:31:15.013Z,9.40
2019-04-07T17:33:45.753Z,9.35
2019-04-07T17:36:18.957Z,10.50
2019-04-07T17:39:07.905Z,11.10
2019-04-07T17:41:37.562Z,9.50
2019-04-07T17:44:25.065Z,10.73
2019-04-07T17:47:13.436Z,10.40
2019-04-07T17:50:01.037Z,13.47
2019-04-07T17:52:41.570Z,10.73
2019-04-07T17:55:44.347Z,13.95
2019-04-07T17:58:20.576Z,8.90
2019-04-07T18:01:23.844Z,12.13
2019-04-07T18:04:13.997Z,10.83
2019-04-07T18:06:53.900Z,12.63
2019-04-07T18:09:33.861Z,10.33
2019-04-07T18:12:33.100Z,10.80
2019-04-07T18:15:17.878Z,10.73
2019-04-07T18:18:06.980Z,14.07
2019-04-07T18:20:44.483Z,11.93
2019-04-07T18:23:24.984Z,11.47
2019-04-07T18:25:59.385Z,10.30
2019-04-07T18:28:39.191Z,9.73
2019-04-07T18:31:20.012Z,9.57
2019-04-07T18:34:15.376Z,10.70
2019-04-07T18:37:06.104Z,11.30
2019-04-07T18:40:02.051Z,10.77
2019-04-07T18:42:59.125Z,10.77
2019-04-07T18:45:46.543Z,12.37
2019-04-07T18:48:28.610Z,8.77
2019-04-07T18:51:29.370Z,11.43
2019-04-07T18:54:17.193Z,12.77
2019-04-07T18:57:01.335Z,10.70
2019-04-07T18:59:42.445Z,10.43
2019-04-07T19:02:37.849Z,12.23
2019-04-07T19:05:15.629Z,10.00
2019-04-07T19:08:18.543Z,13.28
2019-04-07T19:11:10.357Z,12.80
2019-04-07T19:13:45.728Z,11.93
2019-04-07T19:16:39.847Z,12.57
2019-04-07T19:19:27.771Z,9.60
2019-04-07T19:22:25.969Z,9.07
2019-04-07T19:25:15.736Z,10.60
2019-04-07T19:28:05.997Z,10.18
2019-04-07T19:30:55.092Z,16.57
2019-04-07T19:33:43.986Z,9.97
2019-04-07T19:36:31.464Z,10.60
2019-04-07T19:39:11.222Z,12.70
2019-04-07T19:41:46.909Z,13.20
2019-04-07T19:44:41.487Z,11.73
2019-04-07T19:47:31.183Z,12.78
2019-04-07T19:50:10.816Z,9.60
2019-04-07T19:52:58.349Z,8.83
2019-04-07T19:55:44.430Z,11.83
2019-04-07T19:58:19.693Z,12.40
2019-04-07T20:01:01.753Z,9.50
2019-04-07T20:03:49.574Z,9.70
2019-04-07T20:06:36.909Z,10.50
2019-04-07T20:09:26.511Z,12.73
2019-04-07T20:12:08.584Z,9.90
2019-04-07T20:15:03.002Z,11.60
2019-04-07T20:17:45.276Z,11.28
2019-04-07T20:20:43.628Z,11.80
2019-04-07T20:23:22.944Z,12.40
2019-04-07T20:26:03.706Z,8.40
2019-04-07T20:28:52.098Z,11.83
2019-04-07T20:31:29.987Z,8.70
2019-04-07T20:34:25.285Z,15.77
2019-04-07T20:37:07.311Z,8.07
2019-04-07T20:39:49.824Z,9.20
2019-04-07T20:42:29.020Z,12.20
2019-04-07T20:45:13.402Z,10.17
2019-04-07T20:47:53.376Z,11.17
2019-04-07T20:50:33.512Z,11.40
2019-04-07T20:53:16.569Z,13.40
2019-04-07T20:55:58.204Z,9.60
2019-04-07T20:58:58.003Z,11.08
2019-04-07T21:01:42.959Z,11.03
2019-04-07T21:04:42.278Z,15.47
2019-04-07T21:07:24.822Z,12.67
2019-04-07T21:10:12.504Z,12.78
2019-04-07T21:13:00.307Z,10.30
2019-04-07T21:15:41.241Z,10.53
2019-04-07T21:18:32.880Z,12.90
2019-04-07T21:21:11.804Z,11.93
2019-04-07T21:23:55.404Z,12.60
2019-04-07T21:26:42.793Z,10.30
2019-04-07T21:29:24.877Z,10.07
2019-04-07T21:32:15.570Z,10.67
2019-04-07T21:35:00.488Z,9.63
2019-04-07T21:37:53.133Z,8.93
2019-04-07T21:40:32.129Z,9.23
2019-04-07T21:43:24.304Z,9.83
2019-04-07T21:46:13.828Z,10.63
2019-04-07T21:48:58.048Z,13.10
2019-04-07T21:51:35.289Z,14.47
2019-04-07T21:54:10.648Z,12.93
2019-04-07T21:56:48.259Z,13.37
2019-04-07T21:59:39.777Z,8.68
2019-04-07T22:02:27.636Z,9.65
2019-04-07T22:05:26.863Z,9.37
2019-04-07T22:08:13.063Z,10.00
2019-04-07T22:10:38.356Z,8.93
2019-04-07T22:13:08.334Z,12.85
2019-04-07T22:15:46.590Z,12.05
2019-04-07T22:18:11.248Z,12.07
2019-04-07T22:20:40.773Z,16.00
2019-04-07T22:23:10.308Z,11.13
2019-04-07T22:25:50.523Z,9.80
2019-04-07T22:28:21.268Z,13.17
2019-04-07T22:30:52.170Z,11.73
2019-04-07T22:33:25.254Z,9.57
2019-04-07T22:35:53.311Z,10.37
2019-04-07T22:38:23.837Z,11.20
2019-04-07T22:40:54.262Z,14.13
2019-04-07T22:43:24.880Z,8.80
2019-04-07T22:46:06.903Z,9.13
2019-04-07T22:48:28.180Z,11.67
2019-04-07T22:50:58.825Z,9.67
2019-04-07T22:53:31.328Z,11.30
2019-04-07T22:56:04.783Z,8.37
2019-04-07T22:58:31.956Z,9.97
2019-04-07T23:01:02.724Z,16.67
2019-04-07T23:03:32.513Z,8.77
2019-04-07T23:06:02.033Z,12.83
2019-04-07T23:08:32.799Z,9.13
2019-04-07T23:11:02.535Z,11.03
2019-04-07T23:13:32.186Z,8.13
2019-04-07T23:16:10.758Z,13.43
2019-04-07T23:18:32.845Z,10.93
2019-04-07T23:21:03.112Z,12.33
2019-04-07T23:23:34.452Z,8.23
2019-04-07T23:26:04.224Z,10.53
2019-04-07T23:28:34.727Z,8.20
2019-04-07T23:31:05.391Z,11.13
2019-04-07T23:33:36.087Z,9.97
2019-04-07T23:36:06.624Z,8.10
2019-04-07T23:38:36.952Z,11.20
2019-04-07T23:41:07.247Z,9.27
2019-04-07T23:43:37.628Z,11.30
2019-04-07T23:46:19.881Z,11.05
2019-04-07T23:48:40.251Z,11.73
2019-04-07T23:51:10.216Z,10.07
2019-04-07T23:54:11.255Z,12.60
2019-04-07T23:56:42.055Z,8.63
2019-04-07T23:59:12.208Z,10.23
